Terminal Aerodrome Forecast
Issued by NWS

Home | Current Version | Previous Version | Text Only | Print | Product List | Glossary On
Versions: 1 2 3 4 5 6 7 8 9 10 11 12 13 14 15 16 17 18 19
000
FTUS44 KEPZ 010523
TAFDMN
TAF
KDMN 010523Z 0106/0206 02008KT P6SM SCT080 BKN150
     FM011400 07007KT P6SM BKN040 BKN080
     FM011800 09007KT P6SM SCT050 SCT090 BKN130
     FM020200 07008KT P6SM FEW050 FEW060 SCT130=

USA.gov is the U.S. government's official web portal to all federal, state and local government web resources and services.